createdAt,value
2019-02-28T00:01:57.875Z,10.50
2019-02-28T00:04:45.686Z,10.43
2019-02-28T00:07:22.430Z,11.03
2019-02-28T00:09:57.566Z,11.53
2019-02-28T00:13:05.192Z,11.47
2019-02-28T00:15:39.996Z,11.47
2019-02-28T00:18:49.833Z,12.20
2019-02-28T00:21:27.267Z,10.50
2019-02-28T00:24:30.022Z,11.50
2019-02-28T00:27:15.156Z,11.67
2019-02-28T00:29:53.286Z,10.77
2019-02-28T00:32:40.439Z,11.00
2019-02-28T00:35:50.698Z,12.60
2019-02-28T00:38:29.626Z,10.30
2019-02-28T00:41:09.279Z,11.50
2019-02-28T00:43:40.906Z,11.97
2019-02-28T00:46:14.835Z,11.93
2019-02-28T00:48:52.961Z,11.33
2019-02-28T00:51:29.723Z,12.13
2019-02-28T00:54:08.658Z,13.87
2019-02-28T00:56:40.705Z,12.57
2019-02-28T00:59:23.676Z,12.20
2019-02-28T01:02:17.582Z,12.67
2019-02-28T01:04:54.757Z,14.23
2019-02-28T01:10:24.905Z,13.47
2019-02-28T01:13:21.141Z,13.07
2019-02-28T01:15:55.699Z,13.63
2019-02-28T01:18:34.727Z,14.67
2019-02-28T01:21:12.497Z,13.00
2019-02-28T01:23:47.737Z,15.27
2019-02-28T01:26:25.152Z,14.70
2019-02-28T01:29:15.146Z,13.10
2019-02-28T01:31:55.159Z,14.00
2019-02-28T01:34:32.194Z,14.17
2019-02-28T01:37:13.140Z,15.33
2019-02-28T01:39:48.056Z,15.53
2019-02-28T01:42:24.929Z,14.93
2019-02-28T01:45:03.114Z,14.10
2019-02-28T01:47:37.924Z,16.03
2019-02-28T01:50:14.363Z,14.63
2019-02-28T01:52:51.511Z,14.50
2019-02-28T01:55:29.404Z,14.67
2019-02-28T01:58:08.055Z,14.80
2019-02-28T02:00:42.065Z,14.97
2019-02-28T02:03:20.868Z,14.83
2019-02-28T02:06:04.065Z,14.63
2019-02-28T02:08:37.835Z,14.67
2019-02-28T02:11:13.295Z,14.33
2019-02-28T02:13:48.108Z,15.30
2019-02-28T02:16:19.427Z,15.27
2019-02-28T02:18:54.748Z,15.07
2019-02-28T02:21:40.075Z,15.20
2019-02-28T02:24:14.813Z,15.67
2019-02-28T02:26:49.135Z,17.07
2019-02-28T02:29:22.047Z,16.30
2019-02-28T02:31:53.029Z,16.23
2019-02-28T02:34:28.185Z,16.57
2019-02-28T02:37:06.914Z,17.10
2019-02-28T02:39:40.148Z,16.77
2019-02-28T02:42:21.977Z,16.83
2019-02-28T02:45:06.931Z,18.73
2019-02-28T02:47:38.854Z,17.07
2019-02-28T02:50:12.148Z,17.13
2019-02-28T02:52:47.545Z,18.97
2019-02-28T02:55:20.218Z,17.93
2019-02-28T02:58:02.833Z,18.40
2019-02-28T03:00:36.525Z,17.53
2019-02-28T03:03:09.759Z,18.17
2019-02-28T03:05:41.658Z,17.60
2019-02-28T03:08:24.181Z,19.93
2019-02-28T03:10:55.416Z,19.10
2019-02-28T03:13:27.296Z,19.23
2019-02-28T03:16:12.745Z,19.30
2019-02-28T03:18:44.317Z,22.20
2019-02-28T03:21:16.994Z,22.13
2019-02-28T03:23:48.386Z,20.10
2019-02-28T03:26:25.380Z,19.40
2019-02-28T03:28:59.445Z,20.37
2019-02-28T03:31:37.158Z,20.23
2019-02-28T03:34:15.050Z,20.87
2019-02-28T03:36:55.163Z,21.47
2019-02-28T03:39:24.586Z,20.97
2019-02-28T03:42:01.562Z,21.73
2019-02-28T03:44:37.391Z,19.90
2019-02-28T03:47:13.603Z,19.90
2019-02-28T03:49:58.018Z,19.27
2019-02-28T03:52:29.278Z,19.57
2019-02-28T03:55:06.639Z,20.43
2019-02-28T03:57:39.372Z,21.07
2019-02-28T04:00:14.525Z,21.17
2019-02-28T04:02:45.724Z,19.70
2019-02-28T04:05:38.879Z,20.20
2019-02-28T04:08:12.218Z,19.90
2019-02-28T04:10:45.088Z,22.37
2019-02-28T04:13:19.502Z,20.33
2019-02-28T04:16:09.204Z,20.20
2019-02-28T04:18:44.313Z,21.30
2019-02-28T04:21:13.009Z,21.23
2019-02-28T04:23:47.337Z,22.77
2019-02-28T04:26:22.555Z,22.03
2019-02-28T04:28:57.656Z,19.37
2019-02-28T04:31:29.770Z,24.67
2019-02-28T04:34:01.295Z,22.57
2019-02-28T04:36:35.821Z,24.13
2019-02-28T04:39:08.471Z,22.53
2019-02-28T04:41:39.044Z,25.37
2019-02-28T04:44:15.374Z,24.37
2019-02-28T04:46:46.418Z,24.37
2019-02-28T04:49:22.749Z,25.13
2019-02-28T04:51:52.582Z,24.03
2019-02-28T04:54:24.553Z,27.20
2019-02-28T04:56:59.321Z,25.57
2019-02-28T04:59:34.951Z,24.27
2019-02-28T05:02:09.065Z,24.23
2019-02-28T05:04:39.695Z,25.10
2019-02-28T05:07:14.757Z,24.67
2019-02-28T05:09:48.776Z,25.87
2019-02-28T05:12:36.181Z,27.20
2019-02-28T05:15:10.201Z,27.17
2019-02-28T05:17:43.209Z,27.57
2019-02-28T05:20:18.333Z,25.40
2019-02-28T05:22:52.353Z,26.87
2019-02-28T05:25:26.075Z,25.73
2019-02-28T05:28:01.613Z,27.30
2019-02-28T05:30:35.438Z,26.90
2019-02-28T05:33:18.653Z,30.20
2019-02-28T05:35:57.332Z,28.70
2019-02-28T05:38:34.037Z,28.83
2019-02-28T05:41:12.207Z,29.27
2019-02-28T05:43:50.253Z,30.03
2019-02-28T05:46:26.650Z,29.87
2019-02-28T05:48:58.151Z,31.67
2019-02-28T05:51:43.314Z,30.67
2019-02-28T05:54:17.233Z,33.17
2019-02-28T05:56:53.646Z,34.17
2019-02-28T05:59:31.838Z,33.07
2019-02-28T06:02:05.071Z,32.67
2019-02-28T06:04:39.557Z,33.43
2019-02-28T06:07:16.557Z,35.50
2019-02-28T06:09:49.432Z,32.90
2019-02-28T06:12:21.155Z,35.80
2019-02-28T06:15:08.171Z,34.73
2019-02-28T06:17:44.936Z,35.77
2019-02-28T06:20:18.071Z,36.13
2019-02-28T06:22:52.017Z,36.37
2019-02-28T06:25:32.534Z,37.60
2019-02-28T06:28:05.794Z,35.03
2019-02-28T06:30:42.787Z,33.40
2019-02-28T06:33:13.712Z,34.20
2019-02-28T06:35:45.543Z,35.57
2019-02-28T06:38:23.282Z,34.27
2019-02-28T06:40:55.123Z,35.33
2019-02-28T06:43:30.832Z,34.00
2019-02-28T06:46:08.545Z,35.33
2019-02-28T06:48:39.293Z,36.60
2019-02-28T06:51:12.823Z,36.63
2019-02-28T06:53:44.367Z,35.77
2019-02-28T06:56:22.220Z,35.30
2019-02-28T06:58:54.851Z,35.43
2019-02-28T07:01:29.481Z,35.90
2019-02-28T07:04:01.292Z,35.97
2019-02-28T07:06:35.948Z,33.70
2019-02-28T07:09:12.705Z,34.23
2019-02-28T07:11:45.890Z,33.40
2019-02-28T07:14:21.179Z,31.87
2019-02-28T07:17:14.834Z,33.37
2019-02-28T07:20:04.704Z,31.97
2019-02-28T07:22:54.514Z,31.80
2019-02-28T07:25:25.979Z,32.63
2019-02-28T07:28:09.079Z,32.40
2019-02-28T07:30:50.351Z,33.27
2019-02-28T07:33:26.537Z,31.47
2019-02-28T07:36:21.445Z,32.50
2019-02-28T07:39:01.326Z,30.13
2019-02-28T07:41:37.392Z,31.47
2019-02-28T07:44:12.742Z,29.97
2019-02-28T07:46:50.434Z,30.83
2019-02-28T07:49:41.164Z,29.97
2019-02-28T07:52:16.219Z,30.17
2019-02-28T07:55:13.318Z,29.33
2019-02-28T07:57:53.226Z,30.03
2019-02-28T08:00:30.912Z,31.53
2019-02-28T08:06:09.515Z,31.00
2019-02-28T08:09:05.981Z,29.10
2019-02-28T08:14:47.117Z,30.77
2019-02-28T08:17:20.057Z,30.20
2019-02-28T08:20:34.029Z,31.07
2019-02-28T08:23:41.551Z,30.77
2019-02-28T08:26:54.300Z,29.80
2019-02-28T08:30:34.391Z,30.30
2019-02-28T08:33:53.518Z,31.10
2019-02-28T08:37:20.179Z,29.70
2019-02-28T08:41:06.380Z,30.37
2019-02-28T08:43:53.945Z,29.07
2019-02-28T08:46:29.627Z,31.35
2019-02-28T08:53:19.737Z,32.27
2019-02-28T08:56:05.534Z,29.95
2019-02-28T08:59:28.199Z,29.27
2019-02-28T09:02:14.569Z,28.42
2019-02-28T09:04:55.380Z,29.48
2019-02-28T09:07:37.803Z,29.65
2019-02-28T09:10:22.402Z,28.32
2019-02-28T09:13:01.895Z,27.60
2019-02-28T09:15:43.743Z,28.23
2019-02-28T09:18:44.797Z,28.45
2019-02-28T09:21:28.173Z,28.57
2019-02-28T09:24:21.785Z,29.67
2019-02-28T09:27:01.383Z,30.00
2019-02-28T09:29:55.621Z,29.15
2019-02-28T09:32:53.527Z,29.00
2019-02-28T09:35:35.744Z,28.77
2019-02-28T09:38:26.240Z,28.12
2019-02-28T09:41:16.709Z,28.73
2019-02-28T09:44:00.312Z,27.42
2019-02-28T09:46:38.742Z,28.83
2019-02-28T09:50:03.503Z,27.90
2019-02-28T09:52:45.713Z,26.55
2019-02-28T09:55:52.373Z,27.05
2019-02-28T09:58:39.257Z,26.45
2019-02-28T10:02:08.391Z,25.57
2019-02-28T10:05:11.754Z,25.75
2019-02-28T10:08:06.981Z,25.15
2019-02-28T10:11:00.671Z,24.52
2019-02-28T10:14:04.198Z,23.52
2019-02-28T10:17:07.508Z,23.02
2019-02-28T10:24:51.330Z,24.47
2019-02-28T10:27:23.313Z,22.60
2019-02-28T10:29:52.091Z,22.73
2019-02-28T10:32:21.550Z,22.25
2019-02-28T10:34:50.360Z,20.95
2019-02-28T10:37:22.465Z,21.27
2019-02-28T10:39:49.957Z,22.05
2019-02-28T10:42:18.781Z,22.55
2019-02-28T10:44:47.813Z,20.43
2019-02-28T10:47:16.562Z,20.75
2019-02-28T10:49:45.370Z,20.32
2019-02-28T10:52:14.346Z,19.20
2019-02-28T10:54:46.075Z,19.15
2019-02-28T10:57:13.839Z,20.08
2019-02-28T10:59:42.923Z,20.57
2019-02-28T11:04:48.869Z,20.57
2019-02-28T11:07:18.158Z,20.48
2019-02-28T11:09:47.661Z,20.68
2019-02-28T11:12:20.290Z,20.57
2019-02-28T11:14:49.421Z,20.82
2019-02-28T11:17:18.520Z,20.97
2019-02-28T11:19:48.537Z,21.77
2019-02-28T11:22:18.067Z,21.52
2019-02-28T11:24:47.945Z,20.75
2019-02-28T11:27:19.709Z,21.20
2019-02-28T11:29:47.560Z,22.93
2019-02-28T11:32:16.593Z,21.30
2019-02-28T11:34:45.836Z,22.37
2019-02-28T11:37:16.187Z,21.85
2019-02-28T11:39:45.401Z,22.37
2019-02-28T11:42:14.204Z,24.90
2019-02-28T11:44:46.281Z,24.93
2019-02-28T11:47:14.084Z,25.00
2019-02-28T11:49:42.888Z,24.13
2019-02-28T11:52:12.183Z,22.27
2019-02-28T11:54:41.364Z,22.87
2019-02-28T11:57:10.202Z,21.53
2019-02-28T11:59:39.083Z,22.37
2019-02-28T12:02:08.345Z,23.33
2019-02-28T12:04:37.464Z,21.53
2019-02-28T12:07:07.656Z,22.57
2019-02-28T12:09:36.853Z,23.47
2019-02-28T12:12:07.258Z,23.03
2019-02-28T12:14:36.086Z,23.37
2019-02-28T12:17:06.413Z,23.33
2019-02-28T12:19:35.300Z,22.07
2019-02-28T12:22:04.374Z,23.60
2019-02-28T12:24:33.465Z,22.93
2019-02-28T12:27:04.109Z,23.70
2019-02-28T12:29:32.985Z,21.95
2019-02-28T12:32:01.729Z,22.40
2019-02-28T12:34:30.759Z,26.20
2019-02-28T12:37:00.356Z,22.93
2019-02-28T12:39:29.447Z,21.73
2019-02-28T12:41:59.500Z,23.07
2019-02-28T12:44:29.246Z,22.23
2019-02-28T12:46:58.382Z,21.30
2019-02-28T12:49:27.691Z,22.10
2019-02-28T12:51:56.465Z,22.17
2019-02-28T12:54:26.052Z,22.57
2019-02-28T12:56:55.013Z,22.23
2019-02-28T12:59:24.031Z,23.00
2019-02-28T13:01:52.893Z,25.30
2019-02-28T13:04:21.675Z,27.27
2019-02-28T13:06:50.405Z,28.50
2019-02-28T13:09:19.369Z,25.87
2019-02-28T13:11:48.193Z,26.67
2019-02-28T13:14:17.389Z,29.13
2019-02-28T13:16:46.306Z,29.57
2019-02-28T13:19:16.415Z,28.73
2019-02-28T13:21:46.924Z,30.33
2019-02-28T13:24:16.838Z,31.17
2019-02-28T13:26:45.578Z,32.53
2019-02-28T13:29:14.509Z,33.57
2019-02-28T13:31:43.316Z,35.57
2019-02-28T13:34:13.324Z,34.67
2019-02-28T13:36:42.120Z,37.20
2019-02-28T13:39:11.184Z,34.23
2019-02-28T13:41:40.090Z,33.93
2019-02-28T13:44:08.812Z,33.70
2019-02-28T13:46:37.529Z,31.70
2019-02-28T13:49:08.524Z,30.87
2019-02-28T13:51:42.116Z,30.57
2019-02-28T13:54:08.094Z,29.83
2019-02-28T13:56:37.132Z,29.17
2019-02-28T13:59:06.082Z,26.73
2019-02-28T14:01:35.092Z,27.33
2019-02-28T14:04:04.424Z,26.37
2019-02-28T14:06:33.281Z,26.93
2019-02-28T14:09:02.255Z,26.43
2019-02-28T14:11:31.274Z,25.73
2019-02-28T14:14:01.268Z,26.23
2019-02-28T14:16:30.469Z,25.27
2019-02-28T14:18:59.214Z,25.60
2019-02-28T14:21:28.158Z,23.83
2019-02-28T14:23:59.027Z,27.53
2019-02-28T14:26:27.604Z,30.77
2019-02-28T14:28:57.576Z,33.57
2019-02-28T14:31:26.392Z,33.90
2019-02-28T14:33:56.193Z,34.87
2019-02-28T14:36:25.090Z,34.87
2019-02-28T14:38:53.826Z,34.97
2019-02-28T14:41:24.719Z,36.30
2019-02-28T14:43:56.035Z,35.90
2019-02-28T14:46:23.823Z,35.30
2019-02-28T14:48:52.788Z,36.97
2019-02-28T14:51:21.696Z,38.47
2019-02-28T14:53:50.506Z,35.67
2019-02-28T14:56:19.460Z,36.00
2019-02-28T14:58:48.190Z,32.87
2019-02-28T15:01:20.457Z,32.77
2019-02-28T15:03:47.870Z,33.60
2019-02-28T15:06:16.594Z,32.10
2019-02-28T15:08:47.425Z,31.50
2019-02-28T15:11:16.360Z,31.70
2019-02-28T15:13:45.275Z,30.70
2019-02-28T15:16:14.034Z,30.23
2019-02-28T15:18:44.413Z,30.90
2019-02-28T15:21:13.840Z,29.33
2019-02-28T15:23:42.852Z,29.47
2019-02-28T15:26:11.668Z,26.77
2019-02-28T15:28:40.843Z,27.43
2019-02-28T15:31:09.627Z,24.83
2019-02-28T15:33:38.388Z,25.07
2019-02-28T15:36:07.158Z,23.07
2019-02-28T15:38:35.957Z,23.50
2019-02-28T15:41:05.432Z,23.67
2019-02-28T15:43:34.173Z,22.57
2019-02-28T15:46:03.248Z,23.20
2019-02-28T15:48:34.566Z,23.63
2019-02-28T15:51:03.544Z,23.50
2019-02-28T15:53:32.620Z,23.13
2019-02-28T15:56:01.529Z,23.10
2019-02-28T15:58:30.590Z,21.20
2019-02-28T16:00:59.402Z,22.30
2019-02-28T16:03:28.713Z,21.67
2019-02-28T16:05:57.682Z,22.03
2019-02-28T16:08:28.370Z,20.60
2019-02-28T16:10:57.359Z,21.07
2019-02-28T16:13:26.606Z,21.63
2019-02-28T16:15:55.372Z,21.33
2019-02-28T16:18:24.463Z,20.10
2019-02-28T16:20:53.210Z,19.73
2019-02-28T16:23:23.657Z,21.00
2019-02-28T16:25:52.798Z,19.87
2019-02-28T16:28:22.832Z,19.80
2019-02-28T16:30:51.949Z,19.80
2019-02-28T16:33:24.744Z,22.33
2019-02-28T16:35:51.606Z,20.43
2019-02-28T16:38:20.430Z,19.50
2019-02-28T16:40:49.309Z,18.60
2019-02-28T16:43:20.815Z,18.30
2019-02-28T16:45:50.471Z,18.70
2019-02-28T16:48:19.441Z,18.17
2019-02-28T16:50:50.571Z,15.53
2019-02-28T16:53:19.157Z,16.67
2019-02-28T16:55:48.262Z,16.80
2019-02-28T16:58:18.524Z,16.70
2019-02-28T17:00:47.782Z,16.40
2019-02-28T17:03:17.083Z,15.53
2019-02-28T17:05:45.889Z,15.23
2019-02-28T17:08:15.559Z,15.07
2019-02-28T17:10:45.839Z,13.67
2019-02-28T17:13:27.572Z,13.40
2019-02-28T17:16:04.041Z,12.63
2019-02-28T17:18:33.863Z,12.53
2019-02-28T17:21:02.781Z,11.90
2019-02-28T17:23:33.610Z,11.57
2019-02-28T17:26:02.265Z,10.73
2019-02-28T17:28:38.397Z,10.00
2019-02-28T17:31:28.031Z,10.37
2019-02-28T17:33:56.930Z,9.47
2019-02-28T17:36:25.749Z,8.77
2019-02-28T17:38:54.497Z,8.33
2019-02-28T17:41:23.644Z,8.70
2019-02-28T17:44:37.562Z,7.40
2019-02-28T17:47:15.528Z,10.63
2019-02-28T17:50:39.428Z,7.80
2019-02-28T17:53:32.325Z,7.43
2019-02-28T17:56:40.854Z,7.23
2019-02-28T17:59:36.102Z,7.90
2019-02-28T18:02:50.334Z,8.33
2019-02-28T18:05:56.036Z,8.17
2019-02-28T18:09:09.652Z,7.93
2019-02-28T18:12:02.306Z,7.50
2019-02-28T18:15:05.558Z,9.13
2019-02-28T18:18:08.920Z,8.60
2019-02-28T18:21:04.515Z,9.37
2019-02-28T18:23:55.703Z,7.47
2019-02-28T18:27:08.350Z,8.07
2019-02-28T18:30:05.396Z,7.47
2019-02-28T18:32:34.522Z,7.77
2019-02-28T18:35:03.413Z,7.30
2019-02-28T18:37:32.314Z,7.03
2019-02-28T18:40:01.657Z,7.30
2019-02-28T18:42:30.400Z,7.13
2019-02-28T18:44:59.328Z,7.03
2019-02-28T18:47:28.320Z,7.60
2019-02-28T18:49:57.081Z,7.70
2019-02-28T18:52:26.263Z,11.17
2019-02-28T18:54:55.350Z,7.10
2019-02-28T18:57:24.077Z,6.87
2019-02-28T18:59:52.961Z,6.90
2019-02-28T19:02:21.946Z,7.47
2019-02-28T19:04:50.781Z,7.10
2019-02-28T19:07:19.493Z,6.67
2019-02-28T19:09:48.657Z,7.10
2019-02-28T19:12:17.760Z,6.87
2019-02-28T19:14:46.602Z,7.40
2019-02-28T19:17:16.877Z,6.90
2019-02-28T19:19:45.601Z,7.03
2019-02-28T19:22:14.332Z,7.13
2019-02-28T19:24:43.323Z,9.63
2019-02-28T19:27:12.416Z,7.27
2019-02-28T19:29:41.262Z,6.30
2019-02-28T19:32:10.253Z,6.80
2019-02-28T19:34:39.488Z,6.27
2019-02-28T19:37:08.473Z,6.40
2019-02-28T19:39:37.243Z,7.10
2019-02-28T19:42:06.469Z,7.73
2019-02-28T19:44:35.610Z,7.00
2019-02-28T19:47:04.545Z,6.70
2019-02-28T19:49:33.477Z,7.47
2019-02-28T19:52:02.293Z,8.40
2019-02-28T19:54:31.130Z,8.23
2019-02-28T19:57:00.322Z,7.30
2019-02-28T19:59:29.042Z,6.90
2019-02-28T20:01:57.768Z,8.03
2019-02-28T20:04:26.605Z,7.37
2019-02-28T20:06:55.469Z,6.87
2019-02-28T20:09:24.484Z,7.43
2019-02-28T20:11:53.448Z,8.17
2019-02-28T20:14:22.270Z,7.90
2019-02-28T20:16:51.552Z,6.87
2019-02-28T20:19:20.403Z,7.10
2019-02-28T20:21:49.275Z,6.63
2019-02-28T20:24:18.140Z,8.37
2019-02-28T20:26:46.973Z,9.13
2019-02-28T20:29:16.236Z,7.30
2019-02-28T20:31:45.299Z,8.33
2019-02-28T20:34:14.374Z,8.37
2019-02-28T20:36:43.172Z,8.67
2019-02-28T20:39:14.429Z,8.07
2019-02-28T20:41:43.413Z,8.40
2019-02-28T20:44:12.240Z,9.10
2019-02-28T20:46:41.215Z,8.40
2019-02-28T20:49:10.025Z,8.90
2019-02-28T20:51:38.825Z,8.67
2019-02-28T20:54:07.744Z,9.33
2019-02-28T20:56:36.729Z,9.30
2019-02-28T20:59:05.761Z,8.77
2019-02-28T21:01:34.809Z,8.87
2019-02-28T21:04:03.668Z,9.43
2019-02-28T21:06:32.397Z,9.17
2019-02-28T21:09:01.496Z,9.77
2019-02-28T21:11:30.289Z,7.87
2019-02-28T21:13:59.386Z,10.13
2019-02-28T21:16:28.353Z,8.47
2019-02-28T21:18:58.307Z,8.43
2019-02-28T21:21:27.699Z,8.23
2019-02-28T21:23:57.196Z,8.00
2019-02-28T21:26:26.182Z,7.87
2019-02-28T21:28:54.989Z,8.37
2019-02-28T21:31:23.834Z,7.73
2019-02-28T21:33:52.862Z,8.77
2019-02-28T21:36:21.677Z,7.90
2019-02-28T21:38:50.400Z,7.40
2019-02-28T21:41:19.701Z,7.10
2019-02-28T21:43:48.495Z,6.70
2019-02-28T21:46:17.322Z,7.03
2019-02-28T21:48:46.246Z,5.90
2019-02-28T21:51:15.278Z,6.00
2019-02-28T21:53:44.269Z,6.47
2019-02-28T21:56:12.999Z,7.00
2019-02-28T21:58:42.068Z,6.97
2019-02-28T22:01:11.004Z,7.47
2019-02-28T22:03:39.763Z,7.57
2019-02-28T22:06:08.553Z,7.43
2019-02-28T22:08:37.272Z,8.73
2019-02-28T22:11:06.268Z,8.73
2019-02-28T22:13:35.133Z,9.27
2019-02-28T22:16:03.999Z,8.50
2019-02-28T22:18:32.873Z,9.17
2019-02-28T22:21:01.642Z,12.80
2019-02-28T22:23:30.792Z,10.50
2019-02-28T22:25:59.909Z,10.70
2019-02-28T22:28:28.868Z,10.20
2019-02-28T22:31:12.149Z,10.83
2019-02-28T22:33:46.224Z,10.47
2019-02-28T22:36:17.980Z,10.40
2019-02-28T22:38:46.749Z,10.47
2019-02-28T22:41:15.482Z,10.57
2019-02-28T22:43:44.866Z,10.97
2019-02-28T22:46:13.584Z,10.93
2019-02-28T22:48:42.291Z,11.67
2019-02-28T22:51:11.136Z,10.33
2019-02-28T22:53:40.002Z,11.13
2019-02-28T22:56:08.789Z,12.57
2019-02-28T22:58:37.730Z,15.77
2019-02-28T23:01:14.788Z,12.37
2019-02-28T23:03:43.966Z,14.30
2019-02-28T23:06:13.075Z,13.23
2019-02-28T23:08:41.949Z,13.20
2019-02-28T23:11:11.558Z,14.07
2019-02-28T23:13:40.305Z,13.43
2019-02-28T23:16:09.560Z,13.70
2019-02-28T23:18:38.469Z,13.63
2019-02-28T23:21:07.268Z,14.37
2019-02-28T23:23:36.012Z,14.23
2019-02-28T23:26:08.309Z,13.77
2019-02-28T23:28:40.831Z,14.93
2019-02-28T23:31:48.232Z,15.10
2019-02-28T23:34:28.556Z,13.70
2019-02-28T23:36:57.617Z,14.10
2019-02-28T23:39:26.370Z,14.90
2019-02-28T23:41:55.123Z,14.70
2019-02-28T23:44:24.053Z,14.07
2019-02-28T23:46:54.956Z,14.03
2019-02-28T23:49:23.862Z,14.97
2019-02-28T23:51:52.794Z,13.67
2019-02-28T23:54:21.571Z,14.00
2019-02-28T23:56:50.293Z,13.77
2019-02-28T23:59:19.879Z,12.83
